createdAt,value
2023-05-09T00:01:47.490Z,7.50
2023-05-09T00:04:16.404Z,7.50
2023-05-09T00:06:44.197Z,7.50
2023-05-09T00:09:12.791Z,7.50
2023-05-09T00:11:40.878Z,7.50
2023-05-09T00:14:08.720Z,7.46
2023-05-09T00:16:36.821Z,7.40
2023-05-09T00:19:04.623Z,7.40
2023-05-09T00:21:32.423Z,7.40
2023-05-09T00:24:01.110Z,7.38
2023-05-09T00:26:28.792Z,7.34
2023-05-09T00:28:56.496Z,7.30
2023-05-09T00:31:24.346Z,7.30
2023-05-09T00:33:53.904Z,7.20
2023-05-09T00:36:21.651Z,7.20
2023-05-09T00:38:49.387Z,7.20
2023-05-09T00:41:17.083Z,7.10
2023-05-09T00:43:44.731Z,7.10
2023-05-09T00:46:12.669Z,7.04
2023-05-09T00:48:40.755Z,7.00
2023-05-09T00:51:08.626Z,7.00
2023-05-09T00:53:36.338Z,7.00
2023-05-09T00:56:04.847Z,6.98
2023-05-09T00:58:32.577Z,6.92
2023-05-09T01:03:48.752Z,6.82
2023-05-09T01:06:32.919Z,6.82
2023-05-09T01:09:38.335Z,6.80
2023-05-09T01:12:43.662Z,6.80
2023-05-09T01:15:39.371Z,6.70
2023-05-09T01:18:42.270Z,6.70
2023-05-09T01:21:20.806Z,6.70
2023-05-09T01:24:08.546Z,6.70
2023-05-09T01:27:01.802Z,6.60
2023-05-09T01:29:47.382Z,6.60
2023-05-09T01:32:22.940Z,6.50
2023-05-09T01:34:54.502Z,6.50
2023-05-09T01:37:28.556Z,6.50
2023-05-09T01:40:00.248Z,6.50
2023-05-09T01:42:41.315Z,6.50
2023-05-09T01:45:10.794Z,6.46
2023-05-09T01:47:39.204Z,6.40
2023-05-09T01:50:09.153Z,6.40
2023-05-09T01:52:37.535Z,6.40
2023-05-09T01:55:07.669Z,6.40
2023-05-09T01:57:36.374Z,6.38
2023-05-09T02:00:05.188Z,6.30
2023-05-09T02:02:41.584Z,6.30
2023-05-09T02:05:11.983Z,6.30
2023-05-09T02:07:41.856Z,6.30
2023-05-09T02:10:10.580Z,6.30
2023-05-09T02:12:39.185Z,6.30
2023-05-09T02:15:07.802Z,6.30
2023-05-09T02:17:36.178Z,6.28
2023-05-09T02:20:05.400Z,6.20
2023-05-09T02:22:33.173Z,6.20
2023-05-09T02:25:01.383Z,6.20
2023-05-09T02:27:29.374Z,6.20
2023-05-09T02:29:58.459Z,6.10
2023-05-09T02:32:28.883Z,6.10
2023-05-09T02:34:58.372Z,6.10
2023-05-09T02:37:26.921Z,6.10
2023-05-09T02:39:55.803Z,6.02
2023-05-09T02:42:25.477Z,6.00
2023-05-09T02:44:53.780Z,6.00
2023-05-09T02:47:22.148Z,6.00
2023-05-09T02:49:49.921Z,6.00
2023-05-09T02:52:17.793Z,6.00
2023-05-09T02:54:45.856Z,6.00
2023-05-09T02:57:13.665Z,6.00
2023-05-09T02:59:41.383Z,6.00
2023-05-09T03:02:09.138Z,6.00
2023-05-09T03:04:37.718Z,6.00
2023-05-09T03:07:06.189Z,6.00
2023-05-09T03:09:34.318Z,6.00
2023-05-09T03:12:02.802Z,6.00
2023-05-09T03:14:31.495Z,6.00
2023-05-09T03:17:00.218Z,6.00
2023-05-09T03:19:32.801Z,6.00
2023-05-09T03:22:00.641Z,6.00
2023-05-09T03:24:28.632Z,6.00
2023-05-09T03:26:56.408Z,6.10
2023-05-09T03:29:24.340Z,6.10
2023-05-09T03:31:52.229Z,6.10
2023-05-09T03:34:20.357Z,6.10
2023-05-09T03:36:48.208Z,6.20
2023-05-09T03:39:16.667Z,6.20
2023-05-09T03:41:46.403Z,6.20
2023-05-09T03:44:14.656Z,6.28
2023-05-09T03:46:42.550Z,6.30
2023-05-09T03:49:10.735Z,6.30
2023-05-09T03:51:39.974Z,6.40
2023-05-09T03:54:12.376Z,6.40
2023-05-09T03:56:41.020Z,6.50
2023-05-09T03:59:08.821Z,6.50
2023-05-09T04:01:38.289Z,6.58
2023-05-09T04:04:08.017Z,6.68
2023-05-09T04:06:36.362Z,6.70
2023-05-09T04:09:04.322Z,6.78
2023-05-09T04:11:32.061Z,6.80
2023-05-09T04:14:00.484Z,6.80
2023-05-09T04:16:33.582Z,6.80
2023-05-09T04:19:01.639Z,6.86
2023-05-09T04:21:29.642Z,6.82
2023-05-09T04:23:59.340Z,6.90
2023-05-09T04:26:33.141Z,6.92
2023-05-09T04:29:01.270Z,7.00
2023-05-09T04:31:29.329Z,7.02
2023-05-09T04:33:58.540Z,7.10
2023-05-09T04:36:27.676Z,7.20
2023-05-09T04:38:57.062Z,7.30
2023-05-09T04:41:25.614Z,7.40
2023-05-09T04:43:53.359Z,7.50
2023-05-09T04:46:25.018Z,7.60
2023-05-09T04:48:53.543Z,7.70
2023-05-09T04:51:21.453Z,7.80
2023-05-09T04:53:49.146Z,7.90
2023-05-09T04:56:17.744Z,8.00
2023-05-09T04:58:46.421Z,8.10
2023-05-09T05:01:15.195Z,8.20
2023-05-09T05:03:42.985Z,8.38
2023-05-09T05:06:10.742Z,8.50
2023-05-09T05:08:38.716Z,8.60
2023-05-09T05:11:06.520Z,8.80
2023-05-09T05:13:35.100Z,8.98
2023-05-09T05:16:03.414Z,9.36
2023-05-09T05:18:31.103Z,9.80
2023-05-09T05:20:59.603Z,10.10
2023-05-09T05:23:27.957Z,10.20
2023-05-09T05:25:56.009Z,10.30
2023-05-09T05:28:23.891Z,10.40
2023-05-09T05:30:51.880Z,10.54
2023-05-09T05:33:19.601Z,10.98
2023-05-09T05:35:47.367Z,13.10
2023-05-09T05:38:15.164Z,14.20
2023-05-09T05:40:43.613Z,14.96
2023-05-09T05:43:11.732Z,15.38
2023-05-09T05:45:39.883Z,15.44
2023-05-09T05:48:09.099Z,15.76
2023-05-09T05:50:36.780Z,15.88
2023-05-09T05:53:04.960Z,15.60
2023-05-09T05:55:34.025Z,15.26
2023-05-09T05:58:01.745Z,14.90
2023-05-09T06:00:30.127Z,14.70
2023-05-09T06:03:02.092Z,14.60
2023-05-09T06:05:47.255Z,14.40
2023-05-09T06:08:15.447Z,14.30
2023-05-09T06:10:43.194Z,14.52
2023-05-09T06:13:11.946Z,15.10
2023-05-09T06:15:42.239Z,15.40
2023-05-09T06:18:10.115Z,16.22
2023-05-09T06:20:37.918Z,16.60
2023-05-09T06:23:05.719Z,16.70
2023-05-09T06:25:33.649Z,17.00
2023-05-09T06:28:01.465Z,17.24
2023-05-09T06:30:29.281Z,17.80
2023-05-09T06:32:58.298Z,18.24
2023-05-09T06:35:26.327Z,18.50
2023-05-09T06:37:54.058Z,18.80
2023-05-09T06:40:22.043Z,18.90
2023-05-09T06:42:52.144Z,18.60
2023-05-09T06:45:21.144Z,18.18
2023-05-09T06:47:48.952Z,17.76
2023-05-09T06:50:17.003Z,17.40
2023-05-09T06:52:44.952Z,17.20
2023-05-09T06:55:13.154Z,16.98
2023-05-09T06:57:41.197Z,16.70
2023-05-09T07:00:10.180Z,16.50
2023-05-09T07:02:42.017Z,16.32
2023-05-09T07:05:10.789Z,16.20
2023-05-09T07:07:38.686Z,16.10
2023-05-09T07:10:11.413Z,16.00
2023-05-09T07:12:41.419Z,16.00
2023-05-09T07:15:09.917Z,15.96
2023-05-09T07:17:38.040Z,15.96
2023-05-09T07:20:07.273Z,16.00
2023-05-09T07:22:37.300Z,16.00
2023-05-09T07:25:08.467Z,15.90
2023-05-09T07:27:36.935Z,15.90
2023-05-09T07:30:06.160Z,15.90
2023-05-09T07:32:33.974Z,15.90
2023-05-09T07:35:03.312Z,15.90
2023-05-09T07:37:31.744Z,15.90
2023-05-09T07:40:00.518Z,15.90
2023-05-09T07:42:28.375Z,16.00
2023-05-09T07:44:56.715Z,16.00
2023-05-09T07:47:24.778Z,16.10
2023-05-09T07:49:52.747Z,16.10
2023-05-09T07:52:20.539Z,16.10
2023-05-09T07:54:48.294Z,16.10
2023-05-09T07:57:16.642Z,16.10
2023-05-09T07:59:44.466Z,16.10
2023-05-09T08:02:12.526Z,16.20
2023-05-09T08:04:41.594Z,16.16
2023-05-09T08:07:09.737Z,16.02
2023-05-09T08:09:37.652Z,16.10
2023-05-09T08:12:06.177Z,16.10
2023-05-09T08:14:33.985Z,16.04
2023-05-09T08:17:01.755Z,16.10
2023-05-09T08:19:29.475Z,16.02
2023-05-09T08:21:57.265Z,16.00
2023-05-09T08:24:25.018Z,16.00
2023-05-09T08:26:52.808Z,16.00
2023-05-09T08:29:20.528Z,16.00
2023-05-09T08:31:48.618Z,16.06
2023-05-09T08:34:16.552Z,16.10
2023-05-09T08:36:47.063Z,16.10
2023-05-09T08:39:14.970Z,16.10
2023-05-09T08:41:43.066Z,16.10
2023-05-09T08:44:11.107Z,15.90
2023-05-09T08:46:40.773Z,15.90
2023-05-09T08:49:08.791Z,16.00
2023-05-09T08:51:36.750Z,16.10
2023-05-09T08:54:05.161Z,16.20
2023-05-09T08:56:35.464Z,16.20
2023-05-09T08:59:05.704Z,16.30
2023-05-09T09:01:34.731Z,16.30
2023-05-09T09:04:05.580Z,16.40
2023-05-09T09:06:36.599Z,16.40
2023-05-09T09:09:06.209Z,16.40
2023-05-09T09:11:36.225Z,16.40
2023-05-09T09:14:13.600Z,16.40
2023-05-09T09:16:44.410Z,16.40
2023-05-09T09:19:13.853Z,16.50
2023-05-09T09:21:45.126Z,16.50
2023-05-09T09:24:13.654Z,16.50
2023-05-09T09:26:48.921Z,16.60
2023-05-09T09:29:17.843Z,16.60
2023-05-09T09:31:47.065Z,16.60
2023-05-09T09:34:21.398Z,16.66
2023-05-09T09:36:49.645Z,16.70
2023-05-09T09:39:17.500Z,16.60
2023-05-09T09:41:45.876Z,16.60
2023-05-09T09:44:16.209Z,16.60
2023-05-09T09:46:56.527Z,16.54
2023-05-09T09:49:26.430Z,16.58
2023-05-09T09:51:56.182Z,16.60
2023-05-09T09:54:27.709Z,16.60
2023-05-09T09:56:56.974Z,16.60
2023-05-09T09:59:26.545Z,16.70
2023-05-09T10:02:05.893Z,16.70
2023-05-09T10:04:38.862Z,16.70
2023-05-09T10:07:12.881Z,16.70
2023-05-09T10:09:44.032Z,16.60
2023-05-09T10:12:12.182Z,16.66
2023-05-09T10:14:41.590Z,16.70
2023-05-09T10:17:11.347Z,16.70
2023-05-09T10:19:42.033Z,16.80
2023-05-09T10:22:11.898Z,16.80
2023-05-09T10:24:59.143Z,16.80
2023-05-09T10:27:28.873Z,16.88
2023-05-09T10:30:05.132Z,16.90
2023-05-09T10:32:35.703Z,17.00
2023-05-09T10:35:06.987Z,17.10
2023-05-09T10:37:35.859Z,17.16
2023-05-09T10:40:05.088Z,17.20
2023-05-09T10:42:32.932Z,17.30
2023-05-09T10:45:01.060Z,17.30
2023-05-09T10:47:29.657Z,17.30
2023-05-09T10:49:57.773Z,17.36
2023-05-09T10:52:25.829Z,17.40
2023-05-09T10:55:04.508Z,17.40
2023-05-09T10:57:32.491Z,17.40
2023-05-09T11:00:00.611Z,17.40
2023-05-09T11:02:32.765Z,17.30
2023-05-09T11:05:17.170Z,17.40
2023-05-09T11:07:45.104Z,17.40
2023-05-09T11:10:19.741Z,17.40
2023-05-09T11:12:58.473Z,17.50
2023-05-09T11:15:27.804Z,17.50
2023-05-09T11:18:10.234Z,17.48
2023-05-09T11:20:46.281Z,17.60
2023-05-09T11:23:17.437Z,17.58
2023-05-09T11:25:49.519Z,17.60
2023-05-09T11:28:31.435Z,17.60
2023-05-09T11:31:16.572Z,17.68
2023-05-09T11:33:46.970Z,17.70
2023-05-09T11:36:25.635Z,17.80
2023-05-09T11:39:06.803Z,17.90
2023-05-09T11:41:46.683Z,18.00
2023-05-09T11:44:21.008Z,18.00
2023-05-09T11:46:55.291Z,18.00
2023-05-09T11:49:22.921Z,18.00
2023-05-09T11:51:50.896Z,18.04
2023-05-09T11:54:18.779Z,18.20
2023-05-09T11:56:46.890Z,18.30
2023-05-09T11:59:15.934Z,18.20
2023-05-09T12:01:43.776Z,18.30
2023-05-09T12:04:11.838Z,18.40
2023-05-09T12:06:39.750Z,18.52
2023-05-09T12:09:09.292Z,18.60
2023-05-09T12:11:37.364Z,18.70
2023-05-09T12:14:05.485Z,18.80
2023-05-09T12:16:33.178Z,18.80
2023-05-09T12:19:00.964Z,18.90
2023-05-09T12:21:29.608Z,19.00
2023-05-09T12:23:57.704Z,19.10
2023-05-09T12:26:25.664Z,19.14
2023-05-09T12:28:53.945Z,19.20
2023-05-09T12:31:22.435Z,19.30
2023-05-09T12:33:50.151Z,19.30
2023-05-09T12:36:17.880Z,19.20
2023-05-09T12:38:55.373Z,19.20
2023-05-09T12:41:37.120Z,19.30
2023-05-09T12:44:09.844Z,19.40
2023-05-09T12:46:37.933Z,19.40
2023-05-09T12:49:05.878Z,19.50
2023-05-09T12:51:33.642Z,19.60
2023-05-09T12:54:05.042Z,19.70
2023-05-09T12:56:34.194Z,19.70
2023-05-09T12:59:01.995Z,19.90
2023-05-09T13:01:29.966Z,20.10
2023-05-09T13:04:03.722Z,20.30
2023-05-09T13:06:31.902Z,20.40
2023-05-09T13:09:01.199Z,20.30
2023-05-09T13:11:29.300Z,20.40
2023-05-09T13:13:57.320Z,20.52
2023-05-09T13:16:25.385Z,20.60
2023-05-09T13:18:53.171Z,20.70
2023-05-09T13:21:21.109Z,20.70
2023-05-09T13:23:50.206Z,20.90
2023-05-09T13:26:17.995Z,21.10
2023-05-09T13:28:45.876Z,21.20
2023-05-09T13:31:15.554Z,21.30
2023-05-09T13:33:43.223Z,21.30
2023-05-09T13:36:10.976Z,21.40
2023-05-09T13:38:40.730Z,21.60
2023-05-09T13:41:09.189Z,22.00
2023-05-09T13:43:37.360Z,22.38
2023-05-09T13:46:05.188Z,23.08
2023-05-09T13:48:32.851Z,24.60
2023-05-09T13:51:01.367Z,26.72
2023-05-09T13:53:29.318Z,28.80
2023-05-09T13:55:57.119Z,30.60
2023-05-09T13:58:24.868Z,32.12
2023-05-09T14:00:52.604Z,33.46
2023-05-09T14:03:20.397Z,34.66
2023-05-09T14:05:48.461Z,35.54
2023-05-09T14:08:16.922Z,36.78
2023-05-09T14:10:44.820Z,37.88
2023-05-09T14:13:12.736Z,38.78
2023-05-09T14:15:40.595Z,39.86
2023-05-09T14:18:08.908Z,40.54
2023-05-09T14:20:37.728Z,41.10
2023-05-09T14:23:06.303Z,41.50
2023-05-09T14:25:34.026Z,41.90
2023-05-09T14:28:01.661Z,42.00
2023-05-09T14:30:29.307Z,41.80
2023-05-09T14:32:56.956Z,42.04
2023-05-09T14:35:24.685Z,42.68
2023-05-09T14:37:52.449Z,42.74
2023-05-09T14:40:21.164Z,41.10
2023-05-09T14:42:49.125Z,38.30
2023-05-09T14:45:17.013Z,35.96
2023-05-09T14:47:44.825Z,33.80
2023-05-09T14:50:15.904Z,31.76
2023-05-09T14:52:44.276Z,29.88
2023-05-09T14:55:12.052Z,28.40
2023-05-09T14:57:40.000Z,27.04
2023-05-09T15:00:20.261Z,25.96
2023-05-09T15:02:50.297Z,24.82
2023-05-09T15:05:18.384Z,24.04
2023-05-09T15:07:46.553Z,23.26
2023-05-09T15:10:14.825Z,22.66
2023-05-09T15:12:43.386Z,22.14
2023-05-09T15:15:16.274Z,21.72
2023-05-09T15:17:44.783Z,21.32
2023-05-09T15:20:14.374Z,20.84
2023-05-09T15:22:42.520Z,20.44
2023-05-09T15:25:11.273Z,20.10
2023-05-09T15:27:40.010Z,19.82
2023-05-09T15:30:08.519Z,19.60
2023-05-09T15:32:40.560Z,19.20
2023-05-09T15:35:09.064Z,18.96
2023-05-09T15:37:37.168Z,18.70
2023-05-09T15:40:05.382Z,18.58
2023-05-09T15:42:33.051Z,18.40
2023-05-09T15:45:01.065Z,18.50
2023-05-09T15:47:28.800Z,18.40
2023-05-09T15:49:56.498Z,18.30
2023-05-09T15:52:24.131Z,18.30
2023-05-09T15:54:52.386Z,18.10
2023-05-09T15:57:20.119Z,18.10
2023-05-09T15:59:47.759Z,18.00
2023-05-09T16:02:15.447Z,17.96
2023-05-09T16:04:44.188Z,17.84
2023-05-09T16:07:11.865Z,17.70
2023-05-09T16:09:39.506Z,17.70
2023-05-09T16:12:07.590Z,17.70
2023-05-09T16:14:36.017Z,17.62
2023-05-09T16:17:04.562Z,17.60
2023-05-09T16:19:34.296Z,17.50
2023-05-09T16:22:03.574Z,17.50
2023-05-09T16:24:31.946Z,17.50
2023-05-09T16:26:59.660Z,17.50
2023-05-09T16:29:28.530Z,17.42
2023-05-09T16:31:56.260Z,17.40
2023-05-09T16:34:24.261Z,17.30
2023-05-09T16:36:52.385Z,17.20
2023-05-09T16:39:20.271Z,17.20
2023-05-09T16:41:47.994Z,17.10
2023-05-09T16:44:15.798Z,17.00
2023-05-09T16:46:43.520Z,17.00
2023-05-09T16:49:12.110Z,16.90
2023-05-09T16:51:39.815Z,16.88
2023-05-09T16:54:07.769Z,16.80
2023-05-09T16:56:36.120Z,16.70
2023-05-09T16:59:04.122Z,16.68
2023-05-09T17:01:31.982Z,16.60
2023-05-09T17:04:01.543Z,16.50
2023-05-09T17:06:29.341Z,16.40
2023-05-09T17:08:57.027Z,16.30
2023-05-09T17:11:24.746Z,16.30
2023-05-09T17:13:53.191Z,16.20
2023-05-09T17:16:21.031Z,16.20
2023-05-09T17:18:48.823Z,16.10
2023-05-09T17:21:17.016Z,16.10
2023-05-09T17:23:44.874Z,16.00
2023-05-09T17:26:12.633Z,15.90
2023-05-09T17:28:40.425Z,15.90
2023-05-09T17:31:08.229Z,15.80
2023-05-09T17:33:36.295Z,15.80
2023-05-09T17:36:04.125Z,15.70
2023-05-09T17:38:32.401Z,15.70
2023-05-09T17:41:00.174Z,15.60
2023-05-09T17:43:28.497Z,15.60
2023-05-09T17:45:56.222Z,15.60
2023-05-09T17:48:24.420Z,15.50
2023-05-09T17:50:52.732Z,15.48
2023-05-09T17:53:20.563Z,15.40
2023-05-09T17:55:48.278Z,15.40
2023-05-09T17:58:16.054Z,15.30
2023-05-09T18:00:44.669Z,15.30
2023-05-09T18:03:12.619Z,15.20
2023-05-09T18:05:40.606Z,15.20
2023-05-09T18:08:08.428Z,15.10
2023-05-09T18:10:36.191Z,15.10
2023-05-09T18:13:04.003Z,15.00
2023-05-09T18:15:37.817Z,15.00
2023-05-09T18:18:09.579Z,14.90
2023-05-09T18:20:38.510Z,14.82
2023-05-09T18:23:06.548Z,14.80
2023-05-09T18:25:38.658Z,14.70
2023-05-09T18:28:06.628Z,14.68
2023-05-09T18:30:35.100Z,14.60
2023-05-09T18:33:03.203Z,14.52
2023-05-09T18:35:31.661Z,14.50
2023-05-09T18:37:59.826Z,14.40
2023-05-09T18:40:27.880Z,14.40
2023-05-09T18:42:58.205Z,14.30
2023-05-09T18:45:25.943Z,14.30
2023-05-09T18:47:53.717Z,14.20
2023-05-09T18:50:21.799Z,14.20
2023-05-09T18:52:49.471Z,14.14
2023-05-09T18:55:19.832Z,14.10
2023-05-09T18:57:48.778Z,14.08
2023-05-09T19:00:17.651Z,14.00
2023-05-09T19:02:45.554Z,14.00
2023-05-09T19:05:13.229Z,13.90
2023-05-09T19:07:41.096Z,13.88
2023-05-09T19:10:09.284Z,13.80
2023-05-09T19:12:37.401Z,13.74
2023-05-09T19:15:06.029Z,13.70
2023-05-09T19:17:33.810Z,13.66
2023-05-09T19:20:02.768Z,13.60
2023-05-09T19:22:30.452Z,13.58
2023-05-09T19:24:58.813Z,13.50
2023-05-09T19:27:27.083Z,13.50
2023-05-09T19:29:55.162Z,13.40
2023-05-09T19:32:22.932Z,13.40
2023-05-09T19:34:51.247Z,13.30
2023-05-09T19:37:19.052Z,13.30
2023-05-09T19:39:46.710Z,13.30
2023-05-09T19:42:14.927Z,13.20
2023-05-09T19:44:42.623Z,13.20
2023-05-09T19:47:10.329Z,13.12
2023-05-09T19:49:40.164Z,13.10
2023-05-09T19:52:10.463Z,13.00
2023-05-09T19:54:40.267Z,13.00
2023-05-09T19:57:08.245Z,12.90
2023-05-09T19:59:35.910Z,12.90
2023-05-09T20:02:03.786Z,12.80
2023-05-09T20:04:34.843Z,12.80
2023-05-09T20:09:48.730Z,12.70
2023-05-09T20:12:16.728Z,12.60
2023-05-09T20:14:44.722Z,12.58
2023-05-09T20:17:12.437Z,12.50
2023-05-09T20:19:40.251Z,12.40
2023-05-09T20:22:08.846Z,12.40
2023-05-09T20:24:36.631Z,12.30
2023-05-09T20:27:04.291Z,12.30
2023-05-09T20:29:32.128Z,12.20
2023-05-09T20:31:59.868Z,12.20
2023-05-09T20:34:27.602Z,12.16
2023-05-09T20:36:55.303Z,12.10
2023-05-09T20:39:23.269Z,12.10
2023-05-09T20:41:52.083Z,12.00
2023-05-09T20:44:19.816Z,12.00
2023-05-09T20:46:47.617Z,11.90
2023-05-09T20:49:15.464Z,11.90
2023-05-09T20:51:43.212Z,11.82
2023-05-09T20:54:10.923Z,11.80
2023-05-09T20:56:38.669Z,11.70
2023-05-09T20:59:06.360Z,11.70
2023-05-09T21:01:37.037Z,11.68
2023-05-09T21:04:05.961Z,11.60
2023-05-09T21:06:35.638Z,11.58
2023-05-09T21:09:05.327Z,11.50
2023-05-09T21:11:33.191Z,11.50
2023-05-09T21:14:00.854Z,11.40
2023-05-09T21:16:28.981Z,11.40
2023-05-09T21:18:57.969Z,11.40
2023-05-09T21:21:25.594Z,11.30
2023-05-09T21:23:53.222Z,11.30
2023-05-09T21:26:23.063Z,11.30
2023-05-09T21:28:51.130Z,11.20
2023-05-09T21:31:18.825Z,11.20
2023-05-09T21:33:46.534Z,11.20
2023-05-09T21:36:14.225Z,11.20
2023-05-09T21:38:41.842Z,11.20
2023-05-09T21:41:10.185Z,11.16
2023-05-09T21:43:37.849Z,11.10
2023-05-09T21:46:06.078Z,11.10
2023-05-09T21:48:33.975Z,11.10
2023-05-09T21:51:02.696Z,11.10
2023-05-09T21:53:30.808Z,11.00
2023-05-09T21:55:58.510Z,11.00
2023-05-09T21:58:26.176Z,11.00
2023-05-09T22:00:53.792Z,10.90
2023-05-09T22:03:21.577Z,10.88
2023-05-09T22:05:49.279Z,10.80
2023-05-09T22:08:16.914Z,10.80
2023-05-09T22:10:44.588Z,10.72
2023-05-09T22:13:12.455Z,10.70
2023-05-09T22:15:40.092Z,10.70
2023-05-09T22:18:08.230Z,10.60
2023-05-09T22:20:35.996Z,10.60
2023-05-09T22:23:03.669Z,10.58
2023-05-09T22:25:31.395Z,10.50
2023-05-09T22:27:59.113Z,10.50
2023-05-09T22:30:26.938Z,10.50
2023-05-09T22:32:54.625Z,10.40
2023-05-09T22:35:22.527Z,10.40
2023-05-09T22:37:50.831Z,10.36
2023-05-09T22:40:18.643Z,10.30
2023-05-09T22:42:46.999Z,10.30
2023-05-09T22:45:14.734Z,10.30
2023-05-09T22:47:42.479Z,10.20
2023-05-09T22:50:11.447Z,10.20
2023-05-09T22:52:39.141Z,10.20
2023-05-09T22:55:07.266Z,10.18
2023-05-09T22:57:34.925Z,10.10
2023-05-09T23:00:04.704Z,10.10
2023-05-09T23:02:32.607Z,10.10
2023-05-09T23:05:00.376Z,10.00
2023-05-09T23:07:28.013Z,10.00
2023-05-09T23:09:55.796Z,10.00
2023-05-09T23:12:23.509Z,10.00
2023-05-09T23:14:51.210Z,9.90
2023-05-09T23:17:18.889Z,9.90
2023-05-09T23:19:46.568Z,9.80
2023-05-09T23:22:16.084Z,9.80
2023-05-09T23:24:43.753Z,9.70
2023-05-09T23:27:11.617Z,9.70
2023-05-09T23:29:39.249Z,9.60
2023-05-09T23:32:06.948Z,9.60
2023-05-09T23:34:36.644Z,9.60
2023-05-09T23:37:04.523Z,9.50
2023-05-09T23:39:32.330Z,9.50
2023-05-09T23:42:00.000Z,9.40
2023-05-09T23:44:27.690Z,9.40
2023-05-09T23:46:55.507Z,9.30
2023-05-09T23:49:23.320Z,9.30
2023-05-09T23:51:51.507Z,9.30
2023-05-09T23:54:21.414Z,9.20
2023-05-09T23:56:49.410Z,9.20
2023-05-09T23:59:17.305Z,9.10
